sensor_id;sensor_type;location;lat;lon;timestamp;P1;durP1;ratioP1;P2;durP2;ratioP2
15878;SDS011;61999;51.514;14.614;2023-12-28T00:00:23;6.07;;;3.57;;
15878;SDS011;61999;51.514;14.614;2023-12-28T00:02:51;5.90;;;3.70;;
15878;SDS011;61999;51.514;14.614;2023-12-28T00:05:19;4.13;;;3.37;;
15878;SDS011;61999;51.514;14.614;2023-12-28T00:07:49;5.03;;;3.50;;
15878;SDS011;61999;51.514;14.614;2023-12-28T00:10:23;6.03;;;3.77;;
15878;SDS011;61999;51.514;14.614;2023-12-28T00:12:51;4.40;;;3.60;;
15878;SDS011;61999;51.514;14.614;2023-12-28T00:15:19;6.33;;;3.20;;
15878;SDS011;61999;51.514;14.614;2023-12-28T00:17:48;5.03;;;3.50;;
15878;SDS011;61999;51.514;14.614;2023-12-28T00:20:16;4.00;;;2.97;;
15878;SDS011;61999;51.514;14.614;2023-12-28T00:22:44;5.53;;;3.60;;
15878;SDS011;61999;51.514;14.614;2023-12-28T00:25:14;4.30;;;3.37;;
15878;SDS011;61999;51.514;14.614;2023-12-28T00:27:42;5.07;;;3.90;;
15878;SDS011;61999;51.514;14.614;2023-12-28T00:30:12;7.27;;;3.57;;
15878;SDS011;61999;51.514;14.614;2023-12-28T00:32:41;7.57;;;4.03;;
15878;SDS011;61999;51.514;14.614;2023-12-28T00:35:09;5.60;;;3.83;;
15878;SDS011;61999;51.514;14.614;2023-12-28T00:37:38;6.13;;;3.90;;
15878;SDS011;61999;51.514;14.614;2023-12-28T00:40:07;7.03;;;4.13;;
15878;SDS011;61999;51.514;14.614;2023-12-28T00:42:37;6.13;;;3.60;;
15878;SDS011;61999;51.514;14.614;2023-12-28T00:45:07;7.37;;;3.77;;
15878;SDS011;61999;51.514;14.614;2023-12-28T00:47:35;5.00;;;3.40;;
15878;SDS011;61999;51.514;14.614;2023-12-28T00:50:04;7.07;;;3.60;;
15878;SDS011;61999;51.514;14.614;2023-12-28T00:52:33;5.33;;;3.60;;
15878;SDS011;61999;51.514;14.614;2023-12-28T00:55:01;4.77;;;3.50;;
15878;SDS011;61999;51.514;14.614;2023-12-28T00:57:29;5.73;;;3.20;;
15878;SDS011;61999;51.514;14.614;2023-12-28T00:59:58;7.13;;;4.10;;
15878;SDS011;61999;51.514;14.614;2023-12-28T01:02:26;5.33;;;3.60;;
15878;SDS011;61999;51.514;14.614;2023-12-28T01:04:54;5.90;;;3.57;;
15878;SDS011;61999;51.514;14.614;2023-12-28T01:07:22;4.30;;;3.60;;
15878;SDS011;61999;51.514;14.614;2023-12-28T01:09:50;4.97;;;3.80;;
15878;SDS011;61999;51.514;14.614;2023-12-28T01:12:18;5.80;;;3.80;;
15878;SDS011;61999;51.514;14.614;2023-12-28T01:14:46;5.40;;;3.93;;
15878;SDS011;61999;51.514;14.614;2023-12-28T01:17:15;5.10;;;3.73;;
15878;SDS011;61999;51.514;14.614;2023-12-28T01:19:45;4.83;;;3.53;;
15878;SDS011;61999;51.514;14.614;2023-12-28T01:22:13;8.60;;;4.00;;
15878;SDS011;61999;51.514;14.614;2023-12-28T01:24:41;5.63;;;3.80;;
15878;SDS011;61999;51.514;14.614;2023-12-28T01:27:09;9.23;;;4.07;;
15878;SDS011;61999;51.514;14.614;2023-12-28T01:29:37;5.57;;;3.53;;
15878;SDS011;61999;51.514;14.614;2023-12-28T01:32:05;6.23;;;3.80;;
15878;SDS011;61999;51.514;14.614;2023-12-28T01:34:34;6.30;;;3.63;;
15878;SDS011;61999;51.514;14.614;2023-12-28T01:37:02;5.60;;;3.70;;
15878;SDS011;61999;51.514;14.614;2023-12-28T01:39:30;5.00;;;3.50;;
15878;SDS011;61999;51.514;14.614;2023-12-28T01:41:58;6.47;;;4.07;;
15878;SDS011;61999;51.514;14.614;2023-12-28T01:44:26;6.13;;;3.67;;
15878;SDS011;61999;51.514;14.614;2023-12-28T01:46:54;4.83;;;3.07;;
15878;SDS011;61999;51.514;14.614;2023-12-28T01:49:22;5.23;;;3.97;;
15878;SDS011;61999;51.514;14.614;2023-12-28T01:51:52;7.33;;;4.20;;
15878;SDS011;61999;51.514;14.614;2023-12-28T01:54:21;6.83;;;4.30;;
15878;SDS011;61999;51.514;14.614;2023-12-28T01:56:49;6.80;;;3.80;;
15878;SDS011;61999;51.514;14.614;2023-12-28T01:59:17;4.30;;;3.73;;
15878;SDS011;61999;51.514;14.614;2023-12-28T02:01:45;7.50;;;3.53;;
15878;SDS011;61999;51.514;14.614;2023-12-28T02:04:15;5.57;;;4.17;;
15878;SDS011;61999;51.514;14.614;2023-12-28T02:06:43;6.13;;;3.80;;
15878;SDS011;61999;51.514;14.614;2023-12-28T02:09:12;8.07;;;3.90;;
15878;SDS011;61999;51.514;14.614;2023-12-28T02:11:40;5.97;;;3.70;;
15878;SDS011;61999;51.514;14.614;2023-12-28T02:14:08;5.30;;;4.00;;
15878;SDS011;61999;51.514;14.614;2023-12-28T02:16:38;4.00;;;3.47;;
15878;SDS011;61999;51.514;14.614;2023-12-28T02:19:14;7.53;;;3.97;;
15878;SDS011;61999;51.514;14.614;2023-12-28T02:21:53;5.07;;;3.40;;
15878;SDS011;61999;51.514;14.614;2023-12-28T02:24:24;5.27;;;3.57;;
15878;SDS011;61999;51.514;14.614;2023-12-28T02:26:53;6.27;;;3.77;;
15878;SDS011;61999;51.514;14.614;2023-12-28T02:29:21;6.87;;;4.40;;
15878;SDS011;61999;51.514;14.614;2023-12-28T02:31:51;4.30;;;3.77;;
15878;SDS011;61999;51.514;14.614;2023-12-28T02:34:29;6.17;;;4.33;;
15878;SDS011;61999;51.514;14.614;2023-12-28T02:37:04;5.90;;;3.80;;
15878;SDS011;61999;51.514;14.614;2023-12-28T02:39:33;5.77;;;3.97;;
15878;SDS011;61999;51.514;14.614;2023-12-28T02:42:06;7.47;;;4.27;;
15878;SDS011;61999;51.514;14.614;2023-12-28T02:44:34;5.83;;;3.50;;
15878;SDS011;61999;51.514;14.614;2023-12-28T02:47:02;6.87;;;4.10;;
15878;SDS011;61999;51.514;14.614;2023-12-28T02:49:30;5.87;;;3.80;;
15878;SDS011;61999;51.514;14.614;2023-12-28T02:51:58;5.80;;;3.47;;
15878;SDS011;61999;51.514;14.614;2023-12-28T02:54:26;4.20;;;3.30;;
15878;SDS011;61999;51.514;14.614;2023-12-28T02:56:54;7.73;;;3.73;;
15878;SDS011;61999;51.514;14.614;2023-12-28T02:59:24;6.30;;;3.57;;
15878;SDS011;61999;51.514;14.614;2023-12-28T03:01:52;4.07;;;2.33;;
15878;SDS011;61999;51.514;14.614;2023-12-28T03:04:20;7.90;;;3.30;;
15878;SDS011;61999;51.514;14.614;2023-12-28T03:06:48;5.57;;;4.13;;
15878;SDS011;61999;51.514;14.614;2023-12-28T03:09:16;7.57;;;4.37;;
15878;SDS011;61999;51.514;14.614;2023-12-28T03:11:44;6.57;;;3.77;;
15878;SDS011;61999;51.514;14.614;2023-12-28T03:14:11;5.43;;;3.10;;
15878;SDS011;61999;51.514;14.614;2023-12-28T03:16:41;6.37;;;4.27;;
15878;SDS011;61999;51.514;14.614;2023-12-28T03:19:09;7.10;;;3.90;;
15878;SDS011;61999;51.514;14.614;2023-12-28T03:21:38;7.20;;;4.47;;
15878;SDS011;61999;51.514;14.614;2023-12-28T03:24:07;2.03;;;1.80;;
15878;SDS011;61999;51.514;14.614;2023-12-28T03:26:37;5.67;;;3.90;;
15878;SDS011;61999;51.514;14.614;2023-12-28T03:29:05;5.77;;;4.50;;
15878;SDS011;61999;51.514;14.614;2023-12-28T03:31:38;7.97;;;4.63;;
15878;SDS011;61999;51.514;14.614;2023-12-28T03:34:08;8.90;;;6.50;;
15878;SDS011;61999;51.514;14.614;2023-12-28T03:36:36;6.30;;;3.90;;
15878;SDS011;61999;51.514;14.614;2023-12-28T03:39:04;7.47;;;4.20;;
15878;SDS011;61999;51.514;14.614;2023-12-28T03:41:32;3.90;;;3.50;;
15878;SDS011;61999;51.514;14.614;2023-12-28T03:44:00;6.20;;;4.80;;
15878;SDS011;61999;51.514;14.614;2023-12-28T03:46:28;6.67;;;4.77;;
15878;SDS011;61999;51.514;14.614;2023-12-28T03:48:56;6.00;;;4.63;;
15878;SDS011;61999;51.514;14.614;2023-12-28T03:51:25;6.27;;;4.30;;
15878;SDS011;61999;51.514;14.614;2023-12-28T03:53:53;5.23;;;3.33;;
15878;SDS011;61999;51.514;14.614;2023-12-28T03:56:22;6.83;;;4.40;;
15878;SDS011;61999;51.514;14.614;2023-12-28T03:58:51;4.27;;;3.77;;
15878;SDS011;61999;51.514;14.614;2023-12-28T04:01:21;8.43;;;4.30;;
15878;SDS011;61999;51.514;14.614;2023-12-28T04:03:49;6.37;;;4.17;;
15878;SDS011;61999;51.514;14.614;2023-12-28T04:06:17;8.70;;;3.20;;
15878;SDS011;61999;51.514;14.614;2023-12-28T04:08:47;6.67;;;3.70;;
15878;SDS011;61999;51.514;14.614;2023-12-28T04:11:15;4.60;;;4.07;;
15878;SDS011;61999;51.514;14.614;2023-12-28T04:13:43;5.63;;;4.07;;
15878;SDS011;61999;51.514;14.614;2023-12-28T04:16:11;5.60;;;3.40;;
15878;SDS011;61999;51.514;14.614;2023-12-28T04:18:40;5.97;;;4.40;;
15878;SDS011;61999;51.514;14.614;2023-12-28T04:21:08;4.67;;;3.23;;
15878;SDS011;61999;51.514;14.614;2023-12-28T04:23:37;5.67;;;4.17;;
15878;SDS011;61999;51.514;14.614;2023-12-28T04:26:08;4.63;;;3.70;;
15878;SDS011;61999;51.514;14.614;2023-12-28T04:28:36;5.30;;;3.60;;
15878;SDS011;61999;51.514;14.614;2023-12-28T04:31:04;5.10;;;3.20;;
15878;SDS011;61999;51.514;14.614;2023-12-28T04:33:33;4.70;;;3.60;;
15878;SDS011;61999;51.514;14.614;2023-12-28T04:36:02;7.27;;;2.97;;
15878;SDS011;61999;51.514;14.614;2023-12-28T04:38:31;4.93;;;3.60;;
15878;SDS011;61999;51.514;14.614;2023-12-28T04:41:00;5.73;;;3.87;;
15878;SDS011;61999;51.514;14.614;2023-12-28T04:43:29;5.13;;;3.77;;
15878;SDS011;61999;51.514;14.614;2023-12-28T04:46:01;4.10;;;3.23;;
15878;SDS011;61999;51.514;14.614;2023-12-28T04:48:31;5.73;;;3.30;;
15878;SDS011;61999;51.514;14.614;2023-12-28T04:51:01;3.67;;;3.13;;
15878;SDS011;61999;51.514;14.614;2023-12-28T04:53:30;4.73;;;3.20;;
15878;SDS011;61999;51.514;14.614;2023-12-28T04:55:58;4.10;;;2.80;;
15878;SDS011;61999;51.514;14.614;2023-12-28T04:58:26;4.13;;;3.67;;
15878;SDS011;61999;51.514;14.614;2023-12-28T05:00:55;4.30;;;2.40;;
15878;SDS011;61999;51.514;14.614;2023-12-28T05:03:23;4.43;;;3.47;;
15878;SDS011;61999;51.514;14.614;2023-12-28T05:05:51;4.57;;;3.03;;
15878;SDS011;61999;51.514;14.614;2023-12-28T05:08:19;7.13;;;2.90;;
15878;SDS011;61999;51.514;14.614;2023-12-28T05:10:47;5.77;;;4.00;;
15878;SDS011;61999;51.514;14.614;2023-12-28T05:13:15;7.50;;;5.67;;
15878;SDS011;61999;51.514;14.614;2023-12-28T05:15:43;5.30;;;3.80;;
15878;SDS011;61999;51.514;14.614;2023-12-28T05:18:13;6.03;;;4.03;;
15878;SDS011;61999;51.514;14.614;2023-12-28T05:20:41;7.13;;;5.17;;
15878;SDS011;61999;51.514;14.614;2023-12-28T05:23:09;3.63;;;3.30;;
15878;SDS011;61999;51.514;14.614;2023-12-28T05:25:37;5.40;;;4.07;;
15878;SDS011;61999;51.514;14.614;2023-12-28T05:28:05;6.97;;;4.13;;
15878;SDS011;61999;51.514;14.614;2023-12-28T05:30:33;6.53;;;3.43;;
15878;SDS011;61999;51.514;14.614;2023-12-28T05:33:01;7.63;;;4.80;;
15878;SDS011;61999;51.514;14.614;2023-12-28T05:35:30;3.90;;;3.10;;
15878;SDS011;61999;51.514;14.614;2023-12-28T05:37:58;5.33;;;4.00;;
15878;SDS011;61999;51.514;14.614;2023-12-28T05:40:26;6.03;;;3.90;;
15878;SDS011;61999;51.514;14.614;2023-12-28T05:42:54;5.73;;;3.57;;
15878;SDS011;61999;51.514;14.614;2023-12-28T05:45:22;5.33;;;3.57;;
15878;SDS011;61999;51.514;14.614;2023-12-28T05:47:50;5.53;;;3.60;;
15878;SDS011;61999;51.514;14.614;2023-12-28T05:50:18;4.63;;;4.03;;
15878;SDS011;61999;51.514;14.614;2023-12-28T05:52:47;4.80;;;4.10;;
15878;SDS011;61999;51.514;14.614;2023-12-28T05:55:15;5.70;;;4.13;;
15878;SDS011;61999;51.514;14.614;2023-12-28T05:57:43;7.10;;;4.23;;
15878;SDS011;61999;51.514;14.614;2023-12-28T06:00:11;7.43;;;6.30;;
15878;SDS011;61999;51.514;14.614;2023-12-28T06:02:41;6.70;;;4.33;;
15878;SDS011;61999;51.514;14.614;2023-12-28T06:05:09;6.73;;;4.67;;
15878;SDS011;61999;51.514;14.614;2023-12-28T06:07:37;6.33;;;4.30;;
15878;SDS011;61999;51.514;14.614;2023-12-28T06:10:07;5.23;;;3.57;;
15878;SDS011;61999;51.514;14.614;2023-12-28T06:12:36;6.27;;;4.30;;
15878;SDS011;61999;51.514;14.614;2023-12-28T06:15:03;5.90;;;4.10;;
15878;SDS011;61999;51.514;14.614;2023-12-28T06:17:32;5.30;;;3.80;;
15878;SDS011;61999;51.514;14.614;2023-12-28T06:20:01;8.40;;;4.17;;
15878;SDS011;61999;51.514;14.614;2023-12-28T06:22:29;7.40;;;3.93;;
15878;SDS011;61999;51.514;14.614;2023-12-28T06:24:57;6.53;;;4.40;;
15878;SDS011;61999;51.514;14.614;2023-12-28T06:27:26;5.17;;;3.60;;
15878;SDS011;61999;51.514;14.614;2023-12-28T06:29:54;7.17;;;3.90;;
15878;SDS011;61999;51.514;14.614;2023-12-28T06:32:22;6.97;;;4.43;;
15878;SDS011;61999;51.514;14.614;2023-12-28T06:34:51;6.57;;;4.03;;
15878;SDS011;61999;51.514;14.614;2023-12-28T06:37:19;6.20;;;4.43;;
15878;SDS011;61999;51.514;14.614;2023-12-28T06:39:46;4.67;;;3.90;;
15878;SDS011;61999;51.514;14.614;2023-12-28T06:42:14;5.13;;;4.33;;
15878;SDS011;61999;51.514;14.614;2023-12-28T06:44:44;5.23;;;4.37;;
15878;SDS011;61999;51.514;14.614;2023-12-28T06:47:12;4.10;;;3.70;;
15878;SDS011;61999;51.514;14.614;2023-12-28T06:49:40;5.30;;;3.70;;
15878;SDS011;61999;51.514;14.614;2023-12-28T06:52:08;4.67;;;3.60;;
15878;SDS011;61999;51.514;14.614;2023-12-28T06:54:35;4.57;;;4.00;;
15878;SDS011;61999;51.514;14.614;2023-12-28T06:57:04;5.47;;;3.80;;
15878;SDS011;61999;51.514;14.614;2023-12-28T06:59:31;6.10;;;3.87;;
15878;SDS011;61999;51.514;14.614;2023-12-28T07:02:00;4.97;;;4.13;;
15878;SDS011;61999;51.514;14.614;2023-12-28T07:04:28;5.33;;;4.57;;
15878;SDS011;61999;51.514;14.614;2023-12-28T07:06:56;7.67;;;4.83;;
15878;SDS011;61999;51.514;14.614;2023-12-28T07:09:24;5.90;;;3.90;;
15878;SDS011;61999;51.514;14.614;2023-12-28T07:11:52;6.40;;;3.87;;
15878;SDS011;61999;51.514;14.614;2023-12-28T07:14:20;5.17;;;3.93;;
15878;SDS011;61999;51.514;14.614;2023-12-28T07:16:48;6.37;;;4.10;;
15878;SDS011;61999;51.514;14.614;2023-12-28T07:19:17;4.67;;;3.90;;
15878;SDS011;61999;51.514;14.614;2023-12-28T07:21:45;5.53;;;4.47;;
15878;SDS011;61999;51.514;14.614;2023-12-28T07:24:13;5.47;;;4.20;;
15878;SDS011;61999;51.514;14.614;2023-12-28T07:26:41;6.50;;;5.90;;
15878;SDS011;61999;51.514;14.614;2023-12-28T07:29:09;4.20;;;3.70;;
15878;SDS011;61999;51.514;14.614;2023-12-28T07:31:37;7.70;;;4.10;;
15878;SDS011;61999;51.514;14.614;2023-12-28T07:34:05;4.30;;;3.90;;
15878;SDS011;61999;51.514;14.614;2023-12-28T07:36:34;6.07;;;4.20;;
15878;SDS011;61999;51.514;14.614;2023-12-28T07:39:02;8.33;;;4.90;;
15878;SDS011;61999;51.514;14.614;2023-12-28T07:41:30;7.17;;;4.40;;
15878;SDS011;61999;51.514;14.614;2023-12-28T07:43:58;10.40;;;6.67;;
15878;SDS011;61999;51.514;14.614;2023-12-28T07:46:26;7.57;;;4.23;;
15878;SDS011;61999;51.514;14.614;2023-12-28T07:48:54;5.27;;;3.83;;
15878;SDS011;61999;51.514;14.614;2023-12-28T07:51:22;7.33;;;5.30;;
15878;SDS011;61999;51.514;14.614;2023-12-28T07:53:52;7.37;;;4.43;;
15878;SDS011;61999;51.514;14.614;2023-12-28T07:56:19;4.60;;;3.90;;
15878;SDS011;61999;51.514;14.614;2023-12-28T07:58:47;4.97;;;3.67;;
15878;SDS011;61999;51.514;14.614;2023-12-28T08:01:15;4.97;;;4.10;;
15878;SDS011;61999;51.514;14.614;2023-12-28T08:03:44;5.40;;;4.27;;
15878;SDS011;61999;51.514;14.614;2023-12-28T08:06:12;3.60;;;3.30;;
15878;SDS011;61999;51.514;14.614;2023-12-28T08:08:40;5.83;;;4.50;;
15878;SDS011;61999;51.514;14.614;2023-12-28T08:11:09;5.53;;;4.40;;
15878;SDS011;61999;51.514;14.614;2023-12-28T08:13:38;5.67;;;4.87;;
15878;SDS011;61999;51.514;14.614;2023-12-28T08:16:06;6.33;;;4.70;;
15878;SDS011;61999;51.514;14.614;2023-12-28T08:18:34;4.37;;;3.93;;
15878;SDS011;61999;51.514;14.614;2023-12-28T08:21:02;12.47;;;7.80;;
15878;SDS011;61999;51.514;14.614;2023-12-28T08:23:30;8.50;;;6.40;;
15878;SDS011;61999;51.514;14.614;2023-12-28T08:25:59;7.13;;;5.87;;
15878;SDS011;61999;51.514;14.614;2023-12-28T08:28:28;7.53;;;5.60;;
15878;SDS011;61999;51.514;14.614;2023-12-28T08:30:56;6.03;;;4.97;;
15878;SDS011;61999;51.514;14.614;2023-12-28T08:33:24;4.73;;;3.67;;
15878;SDS011;61999;51.514;14.614;2023-12-28T08:35:52;4.83;;;3.40;;
15878;SDS011;61999;51.514;14.614;2023-12-28T08:38:21;5.37;;;3.43;;
15878;SDS011;61999;51.514;14.614;2023-12-28T08:40:49;6.13;;;4.03;;
15878;SDS011;61999;51.514;14.614;2023-12-28T08:43:17;4.40;;;3.90;;
15878;SDS011;61999;51.514;14.614;2023-12-28T08:45:47;5.13;;;3.90;;
15878;SDS011;61999;51.514;14.614;2023-12-28T08:48:15;4.33;;;3.30;;
15878;SDS011;61999;51.514;14.614;2023-12-28T08:50:43;4.03;;;3.40;;
15878;SDS011;61999;51.514;14.614;2023-12-28T08:53:11;4.23;;;3.40;;
15878;SDS011;61999;51.514;14.614;2023-12-28T08:55:39;4.10;;;3.60;;
15878;SDS011;61999;51.514;14.614;2023-12-28T08:58:07;5.23;;;3.87;;
15878;SDS011;61999;51.514;14.614;2023-12-28T09:00:35;4.47;;;3.60;;
15878;SDS011;61999;51.514;14.614;2023-12-28T09:03:04;4.27;;;3.53;;
15878;SDS011;61999;51.514;14.614;2023-12-28T09:05:34;4.17;;;3.40;;
15878;SDS011;61999;51.514;14.614;2023-12-28T09:08:02;5.93;;;3.60;;
15878;SDS011;61999;51.514;14.614;2023-12-28T09:10:31;6.20;;;4.07;;
15878;SDS011;61999;51.514;14.614;2023-12-28T09:12:59;5.23;;;3.47;;
15878;SDS011;61999;51.514;14.614;2023-12-28T09:15:27;4.97;;;3.30;;
15878;SDS011;61999;51.514;14.614;2023-12-28T09:17:56;7.90;;;3.50;;
15878;SDS011;61999;51.514;14.614;2023-12-28T09:20:25;4.50;;;3.13;;
15878;SDS011;61999;51.514;14.614;2023-12-28T09:22:53;4.97;;;3.47;;
15878;SDS011;61999;51.514;14.614;2023-12-28T09:25:22;5.67;;;4.43;;
15878;SDS011;61999;51.514;14.614;2023-12-28T09:27:50;4.60;;;3.70;;
15878;SDS011;61999;51.514;14.614;2023-12-28T09:30:18;3.93;;;3.33;;
15878;SDS011;61999;51.514;14.614;2023-12-28T09:32:46;4.60;;;3.43;;
15878;SDS011;61999;51.514;14.614;2023-12-28T09:35:14;5.90;;;3.10;;
15878;SDS011;61999;51.514;14.614;2023-12-28T09:37:43;4.30;;;3.10;;
15878;SDS011;61999;51.514;14.614;2023-12-28T09:40:13;3.83;;;3.20;;
15878;SDS011;61999;51.514;14.614;2023-12-28T09:42:43;3.43;;;3.07;;
15878;SDS011;61999;51.514;14.614;2023-12-28T09:45:18;3.03;;;2.60;;
15878;SDS011;61999;51.514;14.614;2023-12-28T09:47:47;4.63;;;2.80;;
15878;SDS011;61999;51.514;14.614;2023-12-28T09:50:17;3.77;;;2.80;;
15878;SDS011;61999;51.514;14.614;2023-12-28T09:52:47;3.83;;;2.83;;
15878;SDS011;61999;51.514;14.614;2023-12-28T09:55:15;4.20;;;2.80;;
15878;SDS011;61999;51.514;14.614;2023-12-28T09:57:43;4.87;;;2.57;;
15878;SDS011;61999;51.514;14.614;2023-12-28T10:00:13;4.23;;;2.73;;
15878;SDS011;61999;51.514;14.614;2023-12-28T10:02:43;3.00;;;2.70;;
15878;SDS011;61999;51.514;14.614;2023-12-28T10:05:12;2.80;;;2.60;;
15878;SDS011;61999;51.514;14.614;2023-12-28T10:07:41;4.03;;;2.60;;
15878;SDS011;61999;51.514;14.614;2023-12-28T10:10:12;3.53;;;2.60;;
15878;SDS011;61999;51.514;14.614;2023-12-28T10:12:40;3.50;;;2.40;;
15878;SDS011;61999;51.514;14.614;2023-12-28T10:15:09;3.90;;;2.23;;
15878;SDS011;61999;51.514;14.614;2023-12-28T10:17:37;4.53;;;3.10;;
15878;SDS011;61999;51.514;14.614;2023-12-28T10:20:06;2.90;;;2.60;;
15878;SDS011;61999;51.514;14.614;2023-12-28T10:22:35;3.27;;;2.87;;
15878;SDS011;61999;51.514;14.614;2023-12-28T10:25:05;5.37;;;4.27;;
15878;SDS011;61999;51.514;14.614;2023-12-28T10:27:38;8.47;;;6.23;;
15878;SDS011;61999;51.514;14.614;2023-12-28T10:30:08;7.07;;;5.07;;
15878;SDS011;61999;51.514;14.614;2023-12-28T10:32:39;4.67;;;3.30;;
15878;SDS011;61999;51.514;14.614;2023-12-28T10:35:08;4.93;;;4.20;;
15878;SDS011;61999;51.514;14.614;2023-12-28T10:37:36;4.00;;;3.60;;
15878;SDS011;61999;51.514;14.614;2023-12-28T10:40:11;6.30;;;4.43;;
15878;SDS011;61999;51.514;14.614;2023-12-28T10:42:46;7.67;;;5.80;;
15878;SDS011;61999;51.514;14.614;2023-12-28T10:45:19;7.80;;;5.90;;
15878;SDS011;61999;51.514;14.614;2023-12-28T10:47:53;4.47;;;4.03;;
15878;SDS011;61999;51.514;14.614;2023-12-28T10:50:33;5.37;;;4.33;;
15878;SDS011;61999;51.514;14.614;2023-12-28T10:53:10;4.20;;;3.57;;
15878;SDS011;61999;51.514;14.614;2023-12-28T10:55:58;4.43;;;3.33;;
15878;SDS011;61999;51.514;14.614;2023-12-28T10:58:47;3.47;;;3.17;;
15878;SDS011;61999;51.514;14.614;2023-12-28T11:01:21;3.83;;;3.10;;
15878;SDS011;61999;51.514;14.614;2023-12-28T11:03:56;2.97;;;2.73;;
15878;SDS011;61999;51.514;14.614;2023-12-28T11:06:34;2.67;;;2.30;;
15878;SDS011;61999;51.514;14.614;2023-12-28T11:09:04;2.73;;;2.27;;
15878;SDS011;61999;51.514;14.614;2023-12-28T11:11:36;2.13;;;2.03;;
15878;SDS011;61999;51.514;14.614;2023-12-28T11:14:06;2.43;;;2.23;;
15878;SDS011;61999;51.514;14.614;2023-12-28T11:16:36;3.13;;;2.20;;
15878;SDS011;61999;51.514;14.614;2023-12-28T11:19:09;2.50;;;2.30;;
15878;SDS011;61999;51.514;14.614;2023-12-28T11:21:38;2.50;;;2.20;;
15878;SDS011;61999;51.514;14.614;2023-12-28T11:24:07;3.83;;;2.20;;
15878;SDS011;61999;51.514;14.614;2023-12-28T11:26:36;3.40;;;2.10;;
15878;SDS011;61999;51.514;14.614;2023-12-28T11:29:04;2.37;;;2.17;;
15878;SDS011;61999;51.514;14.614;2023-12-28T11:31:33;2.67;;;2.20;;
15878;SDS011;61999;51.514;14.614;2023-12-28T11:34:03;2.83;;;2.10;;
15878;SDS011;61999;51.514;14.614;2023-12-28T11:36:32;2.10;;;1.90;;
15878;SDS011;61999;51.514;14.614;2023-12-28T11:39:06;2.23;;;1.70;;
15878;SDS011;61999;51.514;14.614;2023-12-28T11:41:35;2.20;;;1.90;;
15878;SDS011;61999;51.514;14.614;2023-12-28T11:44:03;2.47;;;2.27;;
15878;SDS011;61999;51.514;14.614;2023-12-28T11:46:34;4.17;;;2.50;;
15878;SDS011;61999;51.514;14.614;2023-12-28T11:49:03;2.27;;;2.07;;
15878;SDS011;61999;51.514;14.614;2023-12-28T11:51:33;3.33;;;2.20;;
15878;SDS011;61999;51.514;14.614;2023-12-28T11:54:05;2.67;;;2.00;;
15878;SDS011;61999;51.514;14.614;2023-12-28T11:56:34;3.37;;;1.90;;
15878;SDS011;61999;51.514;14.614;2023-12-28T11:59:02;2.40;;;2.10;;
15878;SDS011;61999;51.514;14.614;2023-12-28T12:01:35;2.33;;;1.70;;
15878;SDS011;61999;51.514;14.614;2023-12-28T12:04:03;3.20;;;2.10;;
15878;SDS011;61999;51.514;14.614;2023-12-28T12:06:31;2.47;;;2.17;;
15878;SDS011;61999;51.514;14.614;2023-12-28T12:08:59;1.77;;;1.53;;
15878;SDS011;61999;51.514;14.614;2023-12-28T12:11:27;2.37;;;2.13;;
15878;SDS011;61999;51.514;14.614;2023-12-28T12:13:55;2.73;;;2.03;;
15878;SDS011;61999;51.514;14.614;2023-12-28T12:16:23;2.50;;;2.00;;
15878;SDS011;61999;51.514;14.614;2023-12-28T12:18:52;2.30;;;2.10;;
15878;SDS011;61999;51.514;14.614;2023-12-28T12:21:23;2.23;;;1.80;;
15878;SDS011;61999;51.514;14.614;2023-12-28T12:23:51;2.60;;;2.00;;
15878;SDS011;61999;51.514;14.614;2023-12-28T12:26:19;2.53;;;2.10;;
15878;SDS011;61999;51.514;14.614;2023-12-28T12:28:47;2.40;;;2.20;;
15878;SDS011;61999;51.514;14.614;2023-12-28T12:31:15;1.87;;;1.67;;
15878;SDS011;61999;51.514;14.614;2023-12-28T12:33:43;3.00;;;2.00;;
15878;SDS011;61999;51.514;14.614;2023-12-28T12:36:14;2.23;;;2.03;;
15878;SDS011;61999;51.514;14.614;2023-12-28T12:38:42;2.30;;;2.10;;
15878;SDS011;61999;51.514;14.614;2023-12-28T12:41:10;2.73;;;1.83;;
15878;SDS011;61999;51.514;14.614;2023-12-28T12:43:39;3.40;;;2.30;;
15878;SDS011;61999;51.514;14.614;2023-12-28T12:46:08;2.07;;;1.93;;
15878;SDS011;61999;51.514;14.614;2023-12-28T12:48:36;1.87;;;1.77;;
15878;SDS011;61999;51.514;14.614;2023-12-28T12:51:04;1.97;;;1.70;;
15878;SDS011;61999;51.514;14.614;2023-12-28T12:53:34;2.33;;;1.80;;
15878;SDS011;61999;51.514;14.614;2023-12-28T12:56:04;2.20;;;2.00;;
15878;SDS011;61999;51.514;14.614;2023-12-28T12:58:33;2.40;;;2.00;;
15878;SDS011;61999;51.514;14.614;2023-12-28T13:01:05;2.40;;;2.17;;
15878;SDS011;61999;51.514;14.614;2023-12-28T13:03:37;2.30;;;1.90;;
15878;SDS011;61999;51.514;14.614;2023-12-28T13:06:07;2.10;;;1.90;;
15878;SDS011;61999;51.514;14.614;2023-12-28T13:08:37;1.97;;;1.77;;
15878;SDS011;61999;51.514;14.614;2023-12-28T13:11:05;2.03;;;1.83;;
15878;SDS011;61999;51.514;14.614;2023-12-28T13:13:35;2.27;;;2.07;;
15878;SDS011;61999;51.514;14.614;2023-12-28T13:16:03;2.23;;;2.00;;
15878;SDS011;61999;51.514;14.614;2023-12-28T13:18:32;2.10;;;1.70;;
15878;SDS011;61999;51.514;14.614;2023-12-28T13:21:01;2.70;;;2.13;;
15878;SDS011;61999;51.514;14.614;2023-12-28T13:23:29;2.90;;;2.60;;
15878;SDS011;61999;51.514;14.614;2023-12-28T13:25:59;2.23;;;2.03;;
15878;SDS011;61999;51.514;14.614;2023-12-28T13:28:27;2.30;;;1.80;;
15878;SDS011;61999;51.514;14.614;2023-12-28T13:30:55;3.80;;;2.17;;
15878;SDS011;61999;51.514;14.614;2023-12-28T13:33:23;3.83;;;1.97;;
15878;SDS011;61999;51.514;14.614;2023-12-28T13:35:51;2.30;;;2.10;;
15878;SDS011;61999;51.514;14.614;2023-12-28T13:38:19;2.27;;;1.90;;
15878;SDS011;61999;51.514;14.614;2023-12-28T13:40:47;2.20;;;2.00;;
15878;SDS011;61999;51.514;14.614;2023-12-28T13:43:17;3.60;;;2.97;;
15878;SDS011;61999;51.514;14.614;2023-12-28T13:45:45;4.23;;;3.83;;
15878;SDS011;61999;51.514;14.614;2023-12-28T13:48:13;4.47;;;3.43;;
15878;SDS011;61999;51.514;14.614;2023-12-28T13:50:41;2.50;;;2.30;;
15878;SDS011;61999;51.514;14.614;2023-12-28T13:53:10;3.13;;;2.60;;
15878;SDS011;61999;51.514;14.614;2023-12-28T13:55:38;2.50;;;2.30;;
15878;SDS011;61999;51.514;14.614;2023-12-28T13:58:06;2.43;;;2.03;;
15878;SDS011;61999;51.514;14.614;2023-12-28T14:00:35;2.07;;;1.80;;
15878;SDS011;61999;51.514;14.614;2023-12-28T14:03:03;2.27;;;1.80;;
15878;SDS011;61999;51.514;14.614;2023-12-28T14:05:31;2.63;;;2.17;;
15878;SDS011;61999;51.514;14.614;2023-12-28T14:08:00;2.63;;;1.80;;
15878;SDS011;61999;51.514;14.614;2023-12-28T14:10:29;1.87;;;1.77;;
15878;SDS011;61999;51.514;14.614;2023-12-28T14:12:57;1.93;;;1.83;;
15878;SDS011;61999;51.514;14.614;2023-12-28T14:15:25;2.93;;;2.40;;
15878;SDS011;61999;51.514;14.614;2023-12-28T14:17:54;2.47;;;1.90;;
15878;SDS011;61999;51.514;14.614;2023-12-28T14:20:22;2.10;;;1.87;;
15878;SDS011;61999;51.514;14.614;2023-12-28T14:22:51;1.90;;;1.80;;
15878;SDS011;61999;51.514;14.614;2023-12-28T14:25:19;2.03;;;1.90;;
15878;SDS011;61999;51.514;14.614;2023-12-28T14:27:49;2.70;;;1.80;;
15878;SDS011;61999;51.514;14.614;2023-12-28T14:30:18;2.33;;;2.00;;
15878;SDS011;61999;51.514;14.614;2023-12-28T14:32:48;1.90;;;1.80;;
15878;SDS011;61999;51.514;14.614;2023-12-28T14:35:18;2.20;;;2.00;;
15878;SDS011;61999;51.514;14.614;2023-12-28T14:37:47;2.30;;;2.10;;
15878;SDS011;61999;51.514;14.614;2023-12-28T14:40:15;3.03;;;2.70;;
15878;SDS011;61999;51.514;14.614;2023-12-28T14:42:43;2.33;;;2.10;;